Time;durP1;ratioP1;P1;durP2;ratioP2;P2;SDS_P1;SDS_P2;PMS_P1;PMS_P2;Temp;Humidity;BMP_temperature;BMP_pressure;BME280_temperature;BME280_humidity;BME280_pressure;Samples;Min_cycle;Max_cycle;Signal;HPM_P1;HPM_P2
2022/03/01 06:45:22;;;;;;;92.38;43.05;;;;;;;-0.62;100.00;101643.19;5718558;23;20119;-88
2022/03/01 06:48:13;;;;;;;81.57;37.85;;;;;;;-0.27;100.00;101620.84;5005122;23;20048;-89
2022/03/01 06:51:23;;;;;;;82.80;37.20;;;;;;;0.02;100.00;101611.03;4932108;29;20110;-90
2022/03/01 06:54:09;;;;;;;85.43;34.85;;;;;;;0.19;100.00;101594.63;4927900;29;20052;-91
2022/03/01 06:56:54;;;;;;;76.30;34.60;;;;;;;0.65;100.00;101604.41;4927512;29;20046;-92
2022/03/01 06:59:38;;;;;;;73.13;32.10;;;;;;;1.34;99.93;101639.19;4914564;29;20077;-92
2022/03/01 07:02:26;;;;;;;72.78;34.38;;;;;;;1.00;93.87;101646.31;4913902;29;20044;-93
2022/03/01 07:05:15;;;;;;;71.30;34.35;;;;;;;1.41;94.09;101632.59;4914405;29;20044;-94
2022/03/01 07:07:59;;;;;;;72.38;34.58;;;;;;;1.69;89.75;101642.34;4927686;29;20075;-93
2022/03/01 07:10:44;;;;;;;66.93;32.38;;;;;;;1.62;90.42;101636.00;4927697;29;20331;-94
2022/03/01 07:13:29;;;;;;;75.40;35.38;;;;;;;1.71;87.56;101616.56;4941091;29;20051;-95
2022/03/01 07:16:13;;;;;;;82.80;36.97;;;;;;;2.02;89.76;101647.94;4927712;29;20107;-94
2022/03/01 07:18:59;;;;;;;79.30;36.20;;;;;;;1.94;85.76;101646.75;4928030;29;20398;-95
2022/03/01 07:21:43;;;;;;;96.68;47.70;;;;;;;2.19;88.93;101646.00;4914001;29;20495;-94
2022/03/01 07:24:28;;;;;;;94.47;45.72;;;;;;;1.84;85.50;101630.00;4910990;29;20465;-94
2022/03/01 07:27:12;;;;;;;106.50;53.63;;;;;;;2.02;84.28;101618.63;4926867;29;20391;-95
2022/03/01 07:29:57;;;;;;;75.60;36.72;;;;;;;2.57;86.63;101644.84;4927422;29;20048;-94
2022/03/01 07:32:42;;;;;;;76.25;42.17;;;;;;;2.75;80.95;101629.09;4886007;29;20056;-96
2022/03/01 07:35:27;;;;;;;74.07;38.22;;;;;;;3.20;82.38;101649.66;4921999;29;20059;-96
2022/03/01 07:38:12;;;;;;;79.70;38.80;;;;;;;3.14;78.69;101633.91;4907277;29;20052;-95
2022/03/01 07:40:56;;;;;;;71.18;36.30;;;;;;;3.67;79.64;101639.09;4908032;29;20135;-93
2022/03/01 07:43:41;;;;;;;73.10;37.70;;;;;;;2.91;81.94;101650.34;4894442;29;20502;-95
2022/03/01 07:46:25;;;;;;;70.00;35.17;;;;;;;3.71;80.67;101660.00;4907846;29;20072;-95
2022/03/01 07:49:09;;;;;;;68.22;30.50;;;;;;;4.09;77.54;101641.25;4907814;29;20051;-95
2022/03/01 07:51:54;;;;;;;66.80;34.72;;;;;;;3.82;78.21;101639.59;4908315;29;20051;-96
2022/03/01 07:54:38;;;;;;;66.88;36.55;;;;;;;4.42;76.57;101647.47;4908144;29;20415;-93
2022/03/01 07:57:22;;;;;;;58.50;30.00;;;;;;;4.91;74.84;101629.81;4908168;29;20415;-95
2022/03/01 08:00:09;;;;;;;69.03;34.15;;;;;;;5.33;71.47;101619.66;4892038;29;20438;-93
2022/03/01 08:02:56;;;;;;;86.50;43.20;;;;;;;5.45;69.34;101620.78;4908170;29;20067;-92
2022/03/01 08:05:41;;;;;;;73.57;37.88;;;;;;;5.48;68.88;101605.25;4921521;29;20055;-93
2022/03/01 08:08:27;;;;;;;76.82;36.78;;;;;;;5.72;68.54;101620.53;4904901;29;20068;-93
2022/03/01 08:11:12;;;;;;;75.63;39.28;;;;;;;5.80;68.33;101622.50;4925910;29;20044;-93
2022/03/01 08:13:56;;;;;;;81.57;45.45;;;;;;;5.21;70.57;101614.13;4921856;29;20056;-93
2022/03/01 08:16:41;;;;;;;73.07;38.85;;;;;;;5.42;69.50;101625.91;4907167;29;20059;-92
2022/03/01 08:19:25;;;;;;;70.80;37.35;;;;;;;5.89;67.06;101634.84;4921583;29;20040;-91
2022/03/01 08:22:10;;;;;;;62.80;31.45;;;;;;;6.18;66.57;101619.03;4893834;29;20052;-91
2022/03/01 08:24:54;;;;;;;72.28;39.65;;;;;;;6.08;66.50;101615.38;4907439;29;20048;-92
2022/03/01 08:27:38;;;;;;;71.82;39.47;;;;;;;5.76;66.69;101615.47;4906838;29;20044;-91
2022/03/01 08:30:23;;;;;;;88.10;48.35;;;;;;;5.50;68.12;101609.66;4906740;29;20043;-92
2022/03/01 08:33:09;;;;;;;92.15;51.25;;;;;;;4.90;66.83;101613.31;4907128;29;20048;-92
2022/03/01 08:35:55;;;;;;;55.83;28.95;;;;;;;5.69;66.49;101595.38;4920816;29;20086;-93
2022/03/01 08:38:41;;;;;;;55.78;26.90;;;;;;;5.49;64.26;101600.13;4907458;29;20437;-93
2022/03/01 08:41:25;;;;;;;49.60;26.05;;;;;;;5.85;66.67;101594.00;4906888;29;20040;-92
2022/03/01 08:44:11;;;;;;;51.92;25.92;;;;;;;5.97;64.35;101596.91;4907366;29;20044;-93
2022/03/01 08:46:55;;;;;;;43.80;22.83;;;;;;;5.39;63.20;101600.72;4895527;29;20052;-92
2022/03/01 08:49:40;;;;;;;41.47;20.58;;;;;;;4.86;65.41;101603.69;4920701;29;20458;-93
2022/03/01 08:52:24;;;;;;;42.97;22.60;;;;;;;4.93;64.52;101610.81;4924787;29;20052;-93
2022/03/01 08:55:09;;;;;;;48.45;24.33;;;;;;;5.26;64.32;101606.44;4920389;29;20366;-92
2022/03/01 08:57:53;;;;;;;52.97;25.00;;;;;;;5.51;63.98;101592.34;4919829;29;20379;-93
2022/03/01 09:00:38;;;;;;;45.85;21.17;;;;;;;5.99;62.21;101591.75;4920968;29;20119;-92
2022/03/01 09:03:23;;;;;;;60.33;33.53;;;;;;;5.61;63.79;101600.38;4920238;29;20047;-92
2022/03/01 09:06:08;;;;;;;50.20;26.65;;;;;;;5.78;62.97;101589.50;4919550;29;20047;-92
2022/03/01 09:08:53;;;;;;;63.22;30.25;;;;;;;6.00;64.08;101589.16;4920140;29;20127;-92
2022/03/01 09:11:37;;;;;;;41.13;21.85;;;;;;;5.60;63.67;101592.56;4919639;29;20040;-94
2022/03/01 09:14:21;;;;;;;41.72;21.30;;;;;;;5.97;64.59;101583.00;4918939;29;20048;-92
2022/03/01 09:17:05;;;;;;;52.38;23.35;;;;;;;5.91;64.62;101585.44;4920187;29;20427;-93
2022/03/01 09:19:50;;;;;;;42.33;20.85;;;;;;;6.44;63.32;101578.81;4920069;29;20328;-92
2022/03/01 09:22:34;;;;;;;44.88;21.75;;;;;;;6.06;62.78;101576.28;4906178;29;20060;-93
2022/03/01 09:25:19;;;;;;;49.30;23.20;;;;;;;5.65;62.85;101580.53;4919618;29;20050;-92
2022/03/01 09:28:04;;;;;;;46.45;23.25;;;;;;;5.52;63.21;101578.50;4919962;29;20043;-92
2022/03/01 09:30:49;;;;;;;43.05;23.02;;;;;;;5.69;62.60;101574.59;4905834;29;20459;-91
2022/03/01 09:33:34;;;;;;;41.13;20.05;;;;;;;5.51;61.55;101584.53;4919216;29;20107;-91
2022/03/01 09:36:19;;;;;;;34.03;16.73;;;;;;;5.82;60.84;101574.00;4919321;29;20040;-92
2022/03/01 09:39:04;;;;;;;35.72;19.58;;;;;;;6.00;59.39;101573.56;4919765;29;20040;-91
2022/03/01 09:41:50;;;;;;;40.45;20.70;;;;;;;5.75;59.03;101568.63;4932252;29;20044;-92
2022/03/01 09:44:36;;;;;;;34.45;18.58;;;;;;;5.86;61.21;101569.75;4918553;29;20070;-92
2022/03/01 09:47:25;;;;;;;35.33;16.35;;;;;;;6.13;60.66;101555.59;4919016;29;20083;-91
2022/03/01 09:50:10;;;;;;;30.08;16.33;;;;;;;6.42;59.86;101551.00;4918434;29;20044;-92
2022/03/01 09:52:56;;;;;;;31.60;17.38;;;;;;;6.24;57.89;101548.88;4918090;29;20048;-91
2022/03/01 09:55:41;;;;;;;33.92;17.60;;;;;;;6.04;60.23;101549.34;4921688;29;20059;-91
2022/03/01 09:58:26;;;;;;;33.35;17.80;;;;;;;6.10;60.05;101548.63;4917949;29;20058;-91
2022/03/01 10:01:10;;;;;;;32.65;18.45;;;;;;;6.43;58.19;101531.91;4917142;29;20048;-92
2022/03/01 10:04:09;;;;;;;29.05;15.10;;;;;;;6.39;58.31;101535.31;4903897;29;20092;-91
2022/03/01 10:06:53;;;;;;;29.05;15.20;;;;;;;6.69;58.13;101528.06;4918618;29;20049;-90
2022/03/01 10:09:41;;;;;;;21.60;10.30;;;;;;;6.92;55.48;101530.19;4917503;29;20080;-86
2022/03/01 10:12:27;;;;;;;23.45;11.65;;;;;;;6.91;53.37;101526.72;4918356;29;20044;-84
2022/03/01 10:15:13;;;;;;;17.23;8.30;;;;;;;6.88;53.42;101529.28;4917204;29;20431;-85
2022/03/01 10:17:58;;;;;;;13.98;6.35;;;;;;;6.91;50.90;101520.63;4916917;29;20052;-84
2022/03/01 10:20:45;;;;;;;12.98;6.82;;;;;;;6.68;52.41;101528.06;4916950;29;20388;-86
2022/03/01 10:23:29;;;;;;;12.90;6.70;;;;;;;6.07;51.00;101525.13;4917632;29;20435;-84
2022/03/01 10:26:15;;;;;;;14.27;7.85;;;;;;;6.64;51.69;101527.13;4920952;29;20048;-87
2022/03/01 10:29:00;;;;;;;33.97;23.33;;;;;;;6.78;49.24;101520.41;4920527;29;20116;-85
2022/03/01 10:31:49;;;;;;;11.63;6.50;;;;;;;6.50;49.99;101515.56;4922159;29;20044;-85
2022/03/01 10:34:33;;;;;;;9.48;5.57;;;;;;;6.86;49.57;101510.16;4922184;29;20048;-83
2022/03/01 10:37:26;;;;;;;11.15;6.05;;;;;;;6.94;49.67;101508.53;4922798;29;20414;-86
2022/03/01 10:40:14;;;;;;;13.60;7.07;;;;;;;6.79;50.10;101509.19;4922355;29;20044;-87
2022/03/01 10:43:12;;;;;;;13.45;6.78;;;;;;;6.87;49.61;101498.88;4923208;29;20044;-86
2022/03/01 10:46:02;;;;;;;10.18;6.15;;;;;;;6.66;48.16;101493.28;4921905;29;20051;-85
2022/03/01 10:48:57;;;;;;;14.63;7.10;;;;;;;6.54;49.47;101493.97;4890333;29;20045;-86
2022/03/01 10:52:05;;;;;;;14.43;6.25;;;;;;;7.11;49.02;101493.19;4902947;29;20040;-86
2022/03/01 10:54:49;;;;;;;12.82;6.35;;;;;;;7.32;48.01;101481.34;4903627;29;20044;-85
2022/03/01 10:57:33;;;;;;;10.43;5.97;;;;;;;7.32;49.42;101484.81;4905707;29;20052;-85
2022/03/01 11:00:18;;;;;;;10.20;5.38;;;;;;;7.07;49.08;101472.28;4903528;29;20048;-85
2022/03/01 11:03:07;;;;;;;10.88;5.40;;;;;;;7.36;47.56;101475.31;4876469;29;20100;-86
2022/03/01 11:05:53;;;;;;;10.57;5.35;;;;;;;7.14;47.27;101472.38;4903953;29;20127;-82
2022/03/01 11:08:40;;;;;;;8.57;4.45;;;;;;;7.40;45.64;101470.16;4903332;29;20104;-85
2022/03/01 11:11:27;;;;;;;9.10;4.40;;;;;;;6.58;44.27;101461.03;4902654;29;20044;-87
2022/03/01 11:14:18;;;;;;;8.50;4.70;;;;;;;7.43;44.76;101462.38;4903831;29;20049;-85
2022/03/01 11:17:17;;;;;;;9.90;5.30;;;;;;;7.52;44.94;101460.78;4889382;29;20048;-86
2022/03/01 11:20:02;;;;;;;8.40;4.95;;;;;;;7.66;44.49;101459.22;4889842;29;20077;-86
2022/03/01 11:23:11;;;;;;;11.82;6.05;;;;;;;6.94;43.17;101460.78;4889255;29;20448;-87
2022/03/01 11:26:05;;;;;;;11.38;5.88;;;;;;;7.10;45.31;101452.34;4889688;29;20040;-87
2022/03/01 11:28:54;;;;;;;9.80;5.63;;;;;;;7.47;46.55;101434.63;4903196;29;20049;-87
2022/03/01 11:31:41;;;;;;;9.43;5.55;;;;;;;7.76;45.41;101439.34;4889639;29;20419;-86
2022/03/01 11:34:25;;;;;;;11.07;5.82;;;;;;;7.94;44.67;101418.69;4902592;29;20056;-86
2022/03/01 11:37:18;;;;;;;13.93;7.70;;;;;;;7.85;43.78;101419.47;4902798;29;20107;-86
2022/03/01 11:40:04;;;;;;;12.60;7.63;;;;;;;7.79;45.05;101416.78;4902909;29;20045;-85
2022/03/01 11:42:50;;;;;;;14.85;6.00;;;;;;;7.77;45.62;101413.28;4888841;29;20439;-85
2022/03/01 11:45:35;;;;;;;13.05;6.80;;;;;;;7.57;45.80;101414.75;4902774;29;20045;-86
2022/03/01 11:48:25;;;;;;;12.20;5.93;;;;;;;7.79;46.07;101411.56;4920247;29;20095;-86
2022/03/01 11:51:09;;;;;;;9.88;6.07;;;;;;;7.77;45.27;101400.25;4921443;29;20068;-85
2022/03/01 11:53:55;;;;;;;12.02;6.22;;;;;;;7.93;46.03;101399.56;4921349;29;20044;-85
2022/03/01 11:56:42;;;;;;;12.10;5.93;;;;;;;7.99;43.93;101396.13;4920982;29;20044;-86
2022/03/01 11:59:27;;;;;;;12.48;6.35;;;;;;;7.41;43.71;101411.06;4921425;29;20048;-86
2022/03/01 12:02:13;;;;;;;11.40;5.55;;;;;;;6.92;45.00;101395.66;4921878;29;20052;-86
2022/03/01 12:04:59;;;;;;;12.30;6.43;;;;;;;7.45;45.34;101389.41;4920573;29;20439;-86
2022/03/01 12:07:44;;;;;;;10.50;4.80;;;;;;;7.30;44.06;101389.22;4920875;29;20355;-85
2022/03/01 12:10:29;;;;;;;9.20;4.75;;;;;;;7.68;42.54;101379.28;4921668;29;20055;-85
2022/03/01 12:13:13;;;;;;;8.35;4.82;;;;;;;7.95;43.32;101378.69;4920677;29;20419;-85
2022/03/01 12:15:58;;;;;;;14.43;6.00;;;;;;;8.20;42.79;101372.00;4920519;29;20044;-85
2022/03/01 12:18:42;;;;;;;8.40;4.18;;;;;;;7.27;40.54;101374.41;4921996;29;20060;-86
2022/03/01 12:21:27;;;;;;;9.45;4.93;;;;;;;7.84;42.80;101367.28;4907214;29;20044;-85
2022/03/01 12:24:12;;;;;;;10.98;4.80;;;;;;;7.75;40.32;101362.81;4920236;29;20119;-86
2022/03/01 12:26:58;;;;;;;10.00;5.35;;;;;;;7.78;41.20;101352.44;4907304;29;20063;-86
2022/03/01 12:29:46;;;;;;;8.30;4.43;;;;;;;7.79;40.39;101354.16;4920100;29;20048;-86
2022/03/01 12:32:34;;;;;;;8.23;4.75;;;;;;;7.90;40.83;101341.25;4906736;29;20068;-85
2022/03/01 12:35:18;;;;;;;6.57;3.88;;;;;;;7.90;39.99;101339.53;4920521;29;20114;-85
2022/03/01 12:38:09;;;;;;;12.80;6.40;;;;;;;8.28;40.91;101346.81;4919937;29;20443;-85
2022/03/01 12:40:53;;;;;;;9.85;4.50;;;;;;;8.01;39.15;101350.06;4920038;29;20048;-86
2022/03/01 12:43:38;;;;;;;6.15;3.63;;;;;;;7.83;38.03;101336.81;4920358;29;20052;-86
2022/03/01 12:46:24;;;;;;;7.55;4.28;;;;;;;7.49;38.41;101342.53;4919617;29;20135;-86
2022/03/01 12:49:10;;;;;;;7.97;4.35;;;;;;;7.26;39.09;101344.88;4919726;29;20077;-86
2022/03/01 12:51:56;;;;;;;10.55;4.60;;;;;;;7.32;39.86;101330.16;4906908;29;20063;-86
2022/03/01 12:54:44;;;;;;;9.85;5.60;;;;;;;7.40;41.72;101332.00;4920023;29;20075;-85
2022/03/01 12:57:36;;;;;;;12.07;4.78;;;;;;;7.60;41.03;101313.09;4919290;29;20048;-84
2022/03/01 13:00:20;;;;;;;7.95;4.30;;;;;;;6.85;40.82;101318.25;4919554;29;20123;-86
2022/03/01 13:03:05;;;;;;;9.73;5.25;;;;;;;6.95;43.32;101320.13;4899620;29;20051;-84
2022/03/01 13:05:50;;;;;;;9.15;4.68;;;;;;;6.98;41.64;101320.16;4898728;29;20471;-86
2022/03/01 13:08:38;;;;;;;9.88;5.65;;;;;;;7.22;43.25;101309.19;4899421;29;20045;-85
2022/03/01 13:11:24;;;;;;;8.57;4.38;;;;;;;6.98;40.78;101301.06;4899394;29;20337;-86
2022/03/01 13:14:12;;;;;;;11.18;5.05;;;;;;;6.97;41.69;101299.31;4885482;29;20053;-85
2022/03/01 13:17:01;;;;;;;11.45;5.40;;;;;;;6.82;41.52;101297.38;4885630;29;20336;-85
2022/03/01 13:19:46;;;;;;;11.70;5.80;;;;;;;7.19;42.78;101295.25;4900899;29;20056;-85
2022/03/01 13:22:30;;;;;;;11.77;5.07;;;;;;;7.33;42.87;101293.69;4900876;29;20041;-85
2022/03/01 13:25:15;;;;;;;10.43;5.40;;;;;;;6.89;43.56;101287.91;4901284;29;20076;-84
2022/03/01 13:27:59;;;;;;;11.25;5.47;;;;;;;7.22;42.63;101280.53;4900931;29;20044;-85
2022/03/01 13:30:44;;;;;;;10.38;5.30;;;;;;;7.41;42.37;101276.41;4901144;29;20072;-85
2022/03/01 13:33:29;;;;;;;10.40;5.07;;;;;;;7.49;42.27;101261.72;4900228;29;20055;-87
2022/03/01 13:36:14;;;;;;;8.77;4.75;;;;;;;7.53;42.46;101260.00;4900773;29;20052;-85
2022/03/01 13:39:12;;;;;;;8.35;4.68;;;;;;;7.47;42.55;101255.63;4900912;29;20067;-85
2022/03/01 13:41:59;;;;;;;8.98;4.70;;;;;;;7.17;42.74;101256.13;4901324;29;20052;-85
2022/03/01 13:44:46;;;;;;;9.73;5.47;;;;;;;6.98;43.59;101257.63;4900867;29;20116;-84
2022/03/01 13:47:35;;;;;;;41.17;14.40;;;;;;;6.84;44.38;101246.19;4900728;29;20059;-84
2022/03/01 13:50:21;;;;;;;15.18;7.25;;;;;;;7.22;43.35;101241.44;4901289;29;20105;-86
2022/03/01 13:53:15;;;;;;;64.78;23.42;;;;;;;7.28;42.05;101239.75;4886963;29;20048;-86
2022/03/01 13:56:00;;;;;;;9.40;5.07;;;;;;;6.94;42.27;101237.63;4887215;29;20048;-84
2022/03/01 13:58:44;;;;;;;7.90;4.65;;;;;;;6.59;43.02;101233.69;4900011;29;20055;-87
2022/03/01 14:01:28;;;;;;;10.40;5.70;;;;;;;6.75;42.84;101233.91;4890951;29;20053;-85
2022/03/01 14:04:13;;;;;;;9.60;5.10;;;;;;;6.61;43.79;101222.44;4904862;29;20048;-85
2022/03/01 14:06:58;;;;;;;13.45;6.57;;;;;;;6.77;44.13;101227.00;4903688;29;20157;-85
2022/03/01 14:09:51;;;;;;;11.32;5.65;;;;;;;6.92;42.84;101226.34;4904668;29;20049;-86
2022/03/01 14:12:41;;;;;;;9.38;5.05;;;;;;;6.83;42.98;101217.53;4890812;29;20044;-86
2022/03/01 14:15:36;;;;;;;13.40;6.18;;;;;;;6.62;42.67;101228.53;4904904;29;20049;-86
2022/03/01 14:18:38;;;;;;;11.73;5.25;;;;;;;6.76;43.04;101214.84;4903532;29;20056;-85
2022/03/01 14:21:25;;;;;;;11.20;5.80;;;;;;;6.57;42.07;101214.59;4904490;29;20044;-85
2022/03/01 14:24:10;;;;;;;12.05;6.55;;;;;;;6.32;41.97;101212.50;4890272;29;20048;-83
2022/03/01 14:26:54;;;;;;;9.88;5.13;;;;;;;6.59;42.38;101205.03;4904479;29;20048;-84
2022/03/01 14:29:38;;;;;;;13.88;7.07;;;;;;;6.52;42.41;101202.34;4903659;29;20121;-86
2022/03/01 14:32:22;;;;;;;12.00;6.15;;;;;;;6.41;42.91;101196.16;4904619;29;20040;-85
2022/03/01 14:35:07;;;;;;;11.60;5.85;;;;;;;6.53;42.74;101191.13;4889928;29;20371;-86
2022/03/01 14:37:52;;;;;;;12.32;5.78;;;;;;;6.37;41.75;101193.44;4903966;29;20064;-86
2022/03/01 14:40:37;;;;;;;22.65;20.25;;;;;;;6.03;41.61;101193.84;4903453;29;20131;-86
2022/03/01 14:43:21;;;;;;;26.33;15.27;;;;;;;5.94;41.14;101180.69;4903705;29;20057;-86
2022/03/01 14:46:06;;;;;;;22.00;13.07;;;;;;;5.89;40.72;101171.94;4903551;29;20404;-86
2022/03/01 14:48:50;;;;;;;137.27;125.45;;;;;;;5.62;40.51;101172.34;4904184;29;20049;-85
2022/03/01 14:51:35;;;;;;;95.00;86.95;;;;;;;5.26;40.65;101160.44;4903645;29;20048;-86
2022/03/01 14:54:19;;;;;;;34.38;31.02;;;;;;;5.51;41.25;101164.38;4889969;29;20052;-85
2022/03/01 14:57:03;;;;;;;14.77;12.07;;;;;;;5.65;41.56;101158.50;4904114;29;20048;-86
2022/03/01 14:59:47;;;;;;;181.07;78.82;;;;;;;5.54;41.58;101159.22;4904065;29;20081;-85
2022/03/01 15:02:32;;;;;;;269.48;93.18;;;;;;;5.27;41.21;101154.44;4904237;29;20045;-85
2022/03/01 15:05:17;;;;;;;231.85;158.82;;;;;;;5.44;42.03;101153.84;4890101;29;20052;-85
2022/03/01 15:08:02;;;;;;;163.90;101.38;;;;;;;5.23;40.64;101141.34;4889578;29;20052;-85
2022/03/01 15:10:47;;;;;;;130.30;43.42;;;;;;;5.11;42.96;101142.88;4902974;29;20049;-85
2022/03/01 15:13:32;;;;;;;22.05;11.27;;;;;;;5.20;46.53;101159.47;4903319;29;20041;-87
2022/03/01 15:16:16;;;;;;;41.33;15.00;;;;;;;5.07;47.88;101159.25;4902557;29;20076;-87
2022/03/01 15:19:00;;;;;;;68.82;31.40;;;;;;;5.08;49.03;101160.13;4889315;29;20049;-88
2022/03/01 15:21:44;;;;;;;191.10;53.92;;;;;;;4.95;50.05;101164.22;4903726;29;20050;-89
2022/03/01 15:24:29;;;;;;;287.33;99.28;;;;;;;4.81;50.17;101147.47;4903116;29;20044;-87
2022/03/01 15:27:13;;;;;;;286.40;106.82;;;;;;;4.82;50.36;101146.66;4889324;29;20068;-88
2022/03/01 15:29:58;;;;;;;140.38;53.30;;;;;;;4.56;51.36;101159.09;4903544;29;20063;-88
2022/03/01 15:32:42;;;;;;;103.47;46.55;;;;;;;4.59;51.99;101151.38;4889127;29;20387;-88
2022/03/01 15:35:27;;;;;;;55.15;27.23;;;;;;;4.38;51.87;101147.47;4903437;29;20049;-89
2022/03/01 15:38:11;;;;;;;34.60;21.27;;;;;;;4.41;52.09;101154.44;4903131;29;20048;-88
2022/03/01 15:40:56;;;;;;;348.17;183.73;;;;;;;4.28;52.59;101155.91;4902813;29;20048;-89
2022/03/01 15:43:40;;;;;;;165.20;51.15;;;;;;;4.25;53.02;101147.19;4903316;29;20044;-88
2022/03/01 15:46:26;;;;;;;107.95;34.03;;;;;;;4.16;53.27;101150.44;4888883;29;20056;-88
2022/03/01 15:49:10;;;;;;;55.38;20.25;;;;;;;4.15;53.84;101156.47;4902650;29;20040;-88
2022/03/01 15:51:55;;;;;;;45.28;18.05;;;;;;;4.10;53.82;101155.53;4901915;29;20359;-88
2022/03/01 15:54:39;;;;;;;105.57;28.83;;;;;;;4.13;53.72;101142.63;4903140;29;20053;-88
2022/03/01 15:57:24;;;;;;;130.38;34.53;;;;;;;3.85;54.88;101143.69;4902550;29;20052;-89
2022/03/01 16:00:11;;;;;;;47.50;16.27;;;;;;;3.90;54.40;101149.84;4903024;29;20065;-89
2022/03/01 16:02:55;;;;;;;123.28;47.67;;;;;;;3.70;54.97;101147.66;4902564;29;20041;-89
2022/03/01 16:05:40;;;;;;;85.90;28.42;;;;;;;3.75;54.79;101153.84;4889037;29;20040;-88
2022/03/01 16:08:26;;;;;;;41.40;18.38;;;;;;;3.66;55.08;101151.03;4901810;29;20052;-87
2022/03/01 16:11:10;;;;;;;30.25;17.63;;;;;;;3.55;55.42;101144.72;4888389;29;20107;-89
2022/03/01 16:13:56;;;;;;;47.58;25.48;;;;;;;3.45;55.91;101148.78;4902465;29;20144;-88
2022/03/01 16:16:40;;;;;;;58.20;29.25;;;;;;;3.36;56.48;101158.03;4902454;29;20053;-88
2022/03/01 16:19:25;;;;;;;63.38;28.05;;;;;;;3.28;56.67;101157.81;4901821;29;20131;-88
2022/03/01 16:22:10;;;;;;;56.35;25.30;;;;;;;3.17;56.74;101152.38;4901195;29;20053;-88
2022/03/01 16:24:54;;;;;;;48.05;21.23;;;;;;;3.04;57.18;101158.06;4901853;29;20122;-87
2022/03/01 16:27:39;;;;;;;61.28;29.95;;;;;;;2.90;57.66;101162.00;4888112;29;20093;-86
2022/03/01 16:30:23;;;;;;;140.68;61.58;;;;;;;2.70;58.40;101153.69;4901200;29;20428;-87
2022/03/01 16:33:08;;;;;;;55.88;25.98;;;;;;;2.58;58.43;101161.97;4901481;29;20051;-87
2022/03/01 16:35:53;;;;;;;63.15;32.25;;;;;;;2.43;59.06;101152.03;4902339;29;20077;-88
2022/03/01 16:38:38;;;;;;;91.65;45.78;;;;;;;2.35;58.98;101163.88;4901959;29;20078;-87
2022/03/01 16:41:22;;;;;;;79.85;41.85;;;;;;;2.18;59.97;101168.56;4902246;29;20381;-87
2022/03/01 16:44:08;;;;;;;62.95;33.70;;;;;;;2.04;60.12;101162.06;4888017;29;20132;-87
2022/03/01 16:47:24;;;;;;;77.40;33.75;;;;;;;1.95;60.49;101164.34;4895317;29;20089;-89
2022/03/01 19:31:36;;;;;;;60.97;26.73;;;;;;;-2.19;85.79;101150.59;5500923;23;20043;-82
2022/03/01 19:34:42;;;;;;;71.22;30.80;;;;;;;-2.61;85.43;101086.13;4917829;29;20079;-82
2022/03/01 19:37:56;;;;;;;68.68;27.75;;;;;;;-2.29;85.71;101135.56;5410990;23;20038;-81
2022/03/01 22:44:56;;;;;;;48.08;19.40;;;;;;;-4.80;100.00;101051.66;4926010;29;20105;-85
2022/03/01 22:49:20;;;;;;;42.40;17.48;;;;;;;-5.23;100.00;100983.69;4857729;29;20097;-85
2022/03/01 23:05:35;;;;;;;50.15;18.48;;;;;;;-5.29;100.00;100982.44;4923869;29;20063;-84
2022/03/01 23:14:31;;;;;;;38.67;16.88;;;;;;;-5.40;98.41;100961.38;4898653;29;20117;-84
2022/03/01 23:23:31;;;;;;;34.33;15.38;;;;;;;-5.30;100.00;101007.09;4887041;29;20070;-84
2022/03/01 23:27:57;;;;;;;35.15;16.02;;;;;;;-5.22;100.00;101020.31;4868090;29;20057;-84
2022/03/01 23:32:35;;;;;;;44.33;17.58;;;;;;;-5.23;100.00;101018.56;4781840;29;20095;-84
2022/03/01 23:36:32;;;;;;;42.13;18.73;;;;;;;-5.29;100.00;101013.97;4785579;29;20100;-84
2022/03/01 23:50:11;;;;;;;41.50;16.70;;;;;;;-5.61;100.00;100978.91;4776010;30;20109;-84
2022/03/01 23:53:48;;;;;;;42.83;17.65;;;;;;;-5.35;100.00;101023.84;4747192;30;20440;-84
